Time;durP1;ratioP1;P1;durP2;ratioP2;P2;SDS_P1;SDS_P2;PMS_P1;PMS_P2;Temp;Humidity;BMP_temperature;BMP_pressure;BME280_temperature;BME280_humidity;BME280_pressure;Samples;Min_cycle;Max_cycle;Signal;HPM_P1;HPM_P2
2023/04/12 00:00:10;;;;;;;4.40;1.90;;;;;;;7.54;100.00;98232.84;5007442;28;20101;-75
2023/04/12 00:02:36;;;;;;;6.68;1.35;;;;;;;7.67;100.00;98230.22;4999520;28;20109;-76
2023/04/12 00:05:01;;;;;;;5.57;1.17;;;;;;;7.75;100.00;98249.97;4970902;28;20065;-75
2023/04/12 00:07:28;;;;;;;6.60;1.58;;;;;;;7.75;100.00;98234.63;4994944;28;20037;-75
2023/04/12 00:09:53;;;;;;;7.50;1.80;;;;;;;7.97;100.00;98251.53;5002318;28;20072;-75
2023/04/12 00:12:19;;;;;;;7.00;1.70;;;;;;;7.85;100.00;98221.63;4972719;28;20034;-75
2023/04/12 00:14:45;;;;;;;3.55;1.67;;;;;;;8.07;100.00;98252.00;4974081;28;20034;-75
2023/04/12 00:17:11;;;;;;;8.65;1.88;;;;;;;7.92;100.00;98240.53;4992055;28;20041;-76
2023/04/12 00:19:40;;;;;;;10.05;1.50;;;;;;;7.85;100.00;98237.78;4991389;28;20033;-76
2023/04/12 00:22:07;;;;;;;5.32;1.38;;;;;;;7.78;100.00;98230.72;4993311;28;20099;-77
2023/04/12 00:24:32;;;;;;;6.53;1.58;;;;;;;7.83;100.00;98234.50;4978941;28;20034;-76
2023/04/12 00:27:00;;;;;;;4.78;1.33;;;;;;;7.93;100.00;98234.09;4974728;28;20034;-76
2023/04/12 00:29:26;;;;;;;6.03;1.20;;;;;;;8.02;100.00;98246.38;4967730;28;20558;-77
2023/04/12 00:31:51;;;;;;;7.05;1.45;;;;;;;7.83;100.00;98225.56;4967215;28;20057;-77
2023/04/12 00:34:17;;;;;;;6.20;2.05;;;;;;;7.95;100.00;98247.38;4975339;28;20117;-76
2023/04/12 00:36:42;;;;;;;9.18;1.65;;;;;;;7.76;100.00;98227.41;4975600;28;20038;-76
2023/04/12 00:39:08;;;;;;;2.78;1.33;;;;;;;7.80;100.00;98229.47;4974482;28;20383;-77
2023/04/12 00:41:36;;;;;;;3.88;1.38;;;;;;;7.51;100.00;98203.66;4974729;28;20031;-76
2023/04/12 00:44:01;;;;;;;6.60;1.70;;;;;;;7.59;100.00;98218.81;4978218;28;20034;-75
2023/04/12 00:46:28;;;;;;;4.15;1.40;;;;;;;7.56;100.00;98228.13;4978891;28;20038;-76
2023/04/12 00:48:55;;;;;;;5.85;1.65;;;;;;;7.40;100.00;98209.59;4977417;28;20026;-76
2023/04/12 00:51:21;;;;;;;8.80;1.55;;;;;;;7.39;100.00;98226.78;4977842;28;20023;-76
2023/04/12 00:53:47;;;;;;;7.50;1.70;;;;;;;7.36;100.00;98216.38;5000113;28;20026;-76
2023/04/12 00:56:13;;;;;;;5.97;1.98;;;;;;;7.14;100.00;98186.84;4997265;28;20488;-76
2023/04/12 00:58:38;;;;;;;4.53;1.73;;;;;;;7.24;100.00;98211.56;4983578;28;20033;-76
2023/04/12 01:01:04;;;;;;;6.10;1.48;;;;;;;7.17;100.00;98205.28;4976851;28;20042;-76
2023/04/12 01:03:30;;;;;;;6.85;1.75;;;;;;;7.20;100.00;98221.06;4992551;28;20143;-76
2023/04/12 01:06:12;;;;;;;4.20;1.80;;;;;;;7.13;100.00;98219.34;4977688;28;20038;-76
2023/04/12 01:08:56;;;;;;;6.22;1.92;;;;;;;7.09;100.00;98229.66;4990964;28;20026;-76
2023/04/12 01:11:40;;;;;;;3.35;1.60;;;;;;;6.96;100.00;98208.84;4994914;28;20026;-76
2023/04/12 01:14:21;;;;;;;4.53;1.60;;;;;;;7.03;100.00;98222.38;4989959;28;20467;-76
2023/04/12 01:16:52;;;;;;;6.38;1.90;;;;;;;6.95;100.00;98226.03;5002290;28;20079;-75
2023/04/12 01:19:56;;;;;;;10.25;2.70;;;;;;;6.92;100.00;98217.53;5001020;28;20613;-76
2023/04/12 01:22:28;;;;;;;6.13;1.85;;;;;;;6.92;100.00;98217.53;4976402;28;20026;-77
2023/04/12 01:25:08;;;;;;;4.32;2.03;;;;;;;6.87;100.00;98219.97;4980073;28;20529;-76
2023/04/12 01:27:42;;;;;;;10.07;2.38;;;;;;;6.58;100.00;98197.59;4994460;28;20026;-77
2023/04/12 01:30:11;;;;;;;7.25;1.88;;;;;;;6.43;100.00;98208.41;4991784;28;20089;-76
2023/04/12 01:32:37;;;;;;;5.10;2.30;;;;;;;6.38;100.00;98218.88;4977151;28;20018;-75
2023/04/12 01:35:07;;;;;;;6.35;2.60;;;;;;;6.26;100.00;98215.03;4978217;28;20033;-75
2023/04/12 01:37:33;;;;;;;13.65;2.60;;;;;;;6.18;100.00;98210.59;4972913;28;20026;-75
2023/04/12 01:40:00;;;;;;;8.38;2.53;;;;;;;6.08;100.00;98199.38;4976755;28;20026;-76
2023/04/12 01:42:25;;;;;;;9.50;2.28;;;;;;;5.96;100.00;98199.00;4974282;28;20022;-77
2023/04/12 01:44:50;;;;;;;6.20;2.38;;;;;;;5.98;100.00;98207.72;4999771;28;20030;-76
2023/04/12 01:47:16;;;;;;;6.20;2.58;;;;;;;6.01;100.00;98210.00;4974733;28;20033;-76
2023/04/12 01:50:02;;;;;;;7.65;2.45;;;;;;;6.01;100.00;98210.00;4995588;28;20026;-75
2023/04/12 01:52:31;;;;;;;7.75;2.58;;;;;;;6.08;100.00;98220.84;4976639;28;20026;-75
2023/04/12 01:54:57;;;;;;;8.88;2.53;;;;;;;6.01;100.00;98219.94;4976172;28;20022;-78
2023/04/12 01:57:24;;;;;;;10.80;2.90;;;;;;;5.92;100.00;98201.22;4975087;28;20026;-75
2023/04/12 01:59:52;;;;;;;12.43;2.92;;;;;;;6.00;100.00;98212.88;4993830;28;20089;-75
2023/04/12 02:02:18;;;;;;;10.27;3.03;;;;;;;6.07;100.00;98222.66;4986614;28;20022;-75
2023/04/12 02:04:44;;;;;;;11.25;3.05;;;;;;;5.98;100.00;98206.88;4970779;28;20620;-75
2023/04/12 02:07:11;;;;;;;7.15;2.45;;;;;;;5.95;100.00;98200.03;4988912;28;20084;-75
2023/04/12 02:09:37;;;;;;;9.52;3.45;;;;;;;6.04;100.00;98203.44;4994055;28;20049;-75
2023/04/12 02:12:03;;;;;;;8.55;2.92;;;;;;;5.98;100.00;98185.41;4987433;28;20030;-77
2023/04/12 02:14:30;;;;;;;16.48;2.92;;;;;;;6.12;100.00;98196.09;4972515;28;20086;-76
2023/04/12 02:16:56;;;;;;;8.73;2.28;;;;;;;6.16;100.00;98191.19;4976241;28;20029;-76
2023/04/12 02:19:22;;;;;;;8.00;2.20;;;;;;;6.14;100.00;98171.72;4976412;28;20031;-76
2023/04/12 02:21:47;;;;;;;10.43;2.05;;;;;;;6.23;100.00;98181.31;4974871;28;20547;-76
2023/04/12 02:24:13;;;;;;;11.35;2.78;;;;;;;6.09;100.00;98141.94;4975841;28;20105;-76
2023/04/12 02:26:39;;;;;;;9.13;2.05;;;;;;;6.27;100.00;98177.25;4999542;28;20044;-75
2023/04/12 02:29:07;;;;;;;7.25;2.40;;;;;;;6.28;100.00;98168.16;4982550;28;20058;-75
2023/04/12 02:31:35;;;;;;;9.13;2.33;;;;;;;6.19;100.00;98161.25;4974929;28;20426;-79
2023/04/12 02:34:00;;;;;;;9.38;2.47;;;;;;;6.21;100.00;98153.84;4984699;28;20396;-76
2023/04/12 02:36:26;;;;;;;5.70;2.13;;;;;;;6.11;100.00;98134.53;4978557;28;20037;-82
2023/04/12 02:38:51;;;;;;;8.07;2.28;;;;;;;6.15;100.00;98149.22;4980306;28;20037;-79
2023/04/12 02:41:17;;;;;;;4.32;2.13;;;;;;;6.21;100.00;98147.63;4985078;28;20026;-76
2023/04/12 02:43:43;;;;;;;9.32;2.45;;;;;;;6.14;100.00;98128.75;4980312;28;20022;-76
2023/04/12 02:46:08;;;;;;;7.00;2.88;;;;;;;6.31;100.00;98156.19;4975881;28;20476;-76
2023/04/12 02:48:33;;;;;;;6.03;2.10;;;;;;;6.23;100.00;98138.34;4975269;28;20057;-79
2023/04/12 02:50:59;;;;;;;7.93;2.30;;;;;;;6.21;100.00;98137.72;4993613;28;20077;-76
2023/04/12 02:53:24;;;;;;;8.52;2.53;;;;;;;6.19;100.00;98138.94;4977581;28;20061;-76
2023/04/12 02:55:49;;;;;;;13.50;2.80;;;;;;;6.15;100.00;98117.81;4977005;28;20476;-77
2023/04/12 02:58:15;;;;;;;9.32;2.22;;;;;;;6.15;100.00;98119.66;4978490;28;20080;-77
2023/04/12 03:00:42;;;;;;;6.10;2.13;;;;;;;6.14;100.00;98112.66;4977233;28;20029;-76
2023/04/12 03:03:08;;;;;;;4.50;1.92;;;;;;;6.13;100.00;98117.19;4976288;28;20088;-78
2023/04/12 03:05:33;;;;;;;8.32;2.42;;;;;;;6.18;100.00;98129.19;4983603;28;20475;-76
2023/04/12 03:07:59;;;;;;;7.82;2.63;;;;;;;6.14;100.00;98118.03;4982478;28;20030;-76
2023/04/12 03:10:24;;;;;;;7.25;2.42;;;;;;;6.09;100.00;98110.53;4975161;28;20476;-76
2023/04/12 03:12:50;;;;;;;8.48;2.65;;;;;;;6.13;100.00;98122.56;4976140;28;20376;-76
2023/04/12 03:15:16;;;;;;;10.80;2.28;;;;;;;6.10;100.00;98122.09;4974976;28;20109;-76
2023/04/12 03:17:42;;;;;;;9.30;2.65;;;;;;;5.96;100.00;98075.50;4970080;28;20034;-76
2023/04/12 03:20:08;;;;;;;10.32;2.33;;;;;;;6.14;100.00;98096.53;4969713;28;20032;-76
2023/04/12 03:22:35;;;;;;;12.30;2.17;;;;;;;6.11;100.00;98092.38;4992767;28;20404;-76
2023/04/12 03:25:01;;;;;;;9.38;2.55;;;;;;;6.14;100.00;98086.63;4972979;28;20030;-76
2023/04/12 03:27:27;;;;;;;9.25;1.95;;;;;;;6.03;100.00;98064.84;4986177;28;20109;-77
2023/04/12 03:29:52;;;;;;;5.18;1.98;;;;;;;5.93;100.00;98047.19;4966878;28;20117;-76
2023/04/12 03:32:17;;;;;;;6.32;2.20;;;;;;;6.15;100.00;98055.22;4974023;28;20026;-76
2023/04/12 03:34:44;;;;;;;8.05;2.17;;;;;;;6.12;100.00;98061.81;4975152;28;20034;-77
2023/04/12 03:37:09;;;;;;;9.52;2.50;;;;;;;6.03;100.00;98046.88;4992061;28;20033;-76
2023/04/12 03:39:35;;;;;;;8.18;2.67;;;;;;;6.12;100.00;98058.28;4977542;28;20026;-77
2023/04/12 03:42:00;;;;;;;7.18;2.53;;;;;;;6.02;100.00;98039.81;4979507;28;20035;-76
2023/04/12 03:44:25;;;;;;;7.47;2.50;;;;;;;5.98;100.00;98021.63;4990871;28;20061;-77
2023/04/12 03:46:51;;;;;;;4.55;2.45;;;;;;;6.12;100.00;98042.19;4999025;28;20059;-76
2023/04/12 03:49:16;;;;;;;8.50;2.60;;;;;;;6.09;100.00;98053.31;4973594;28;20033;-75
2023/04/12 03:51:42;;;;;;;9.18;2.35;;;;;;;6.11;100.00;98043.22;4978467;28;20463;-78
2023/04/12 03:54:12;;;;;;;6.07;2.13;;;;;;;6.16;100.00;98040.78;4977982;28;20124;-76
2023/04/12 03:56:38;;;;;;;10.27;2.47;;;;;;;6.11;100.00;98027.09;5008018;28;20026;-80
2023/04/12 03:59:06;;;;;;;8.10;2.60;;;;;;;6.08;100.00;98032.88;4993358;28;20030;-80
2023/04/12 04:01:33;;;;;;;7.35;2.60;;;;;;;6.02;100.00;98020.19;4991891;28;20026;-79
2023/04/12 04:03:58;;;;;;;5.30;2.67;;;;;;;6.04;100.00;98002.03;4987109;28;20029;-79
2023/04/12 04:06:24;;;;;;;5.28;2.05;;;;;;;6.10;100.00;98020.06;4977935;28;20030;-79
2023/04/12 04:08:49;;;;;;;9.35;2.20;;;;;;;5.97;100.00;97998.47;4996811;28;20387;-80
2023/04/12 04:11:15;;;;;;;4.60;2.03;;;;;;;5.92;100.00;97989.13;4980101;28;20030;-78
2023/04/12 04:13:40;;;;;;;5.10;1.83;;;;;;;6.13;100.00;98017.81;4982037;28;20081;-79
2023/04/12 04:16:08;;;;;;;4.93;2.33;;;;;;;6.10;100.00;98001.25;4996044;28;20030;-78
2023/04/12 04:18:34;;;;;;;5.07;2.35;;;;;;;6.01;100.00;97980.94;4977840;28;20377;-81
2023/04/12 04:21:00;;;;;;;7.05;1.98;;;;;;;6.02;100.00;97993.34;4976762;28;20041;-77
2023/04/12 04:23:27;;;;;;;3.80;1.80;;;;;;;5.95;100.00;97974.50;4985935;28;20030;-77
2023/04/12 04:25:53;;;;;;;4.32;2.08;;;;;;;5.84;100.00;97949.00;4972608;28;20179;-78
2023/04/12 04:28:19;;;;;;;8.25;3.10;;;;;;;6.03;100.00;97985.09;4979001;28;20527;-80
2023/04/12 04:30:45;;;;;;;7.60;2.00;;;;;;;5.99;100.00;97972.25;4977270;28;20034;-82
2023/04/12 04:33:11;;;;;;;3.80;2.00;;;;;;;6.00;100.00;97974.75;4980023;28;20024;-83
2023/04/12 04:35:40;;;;;;;5.85;2.15;;;;;;;5.98;100.00;97958.00;4993305;28;20032;-77
2023/04/12 04:38:05;;;;;;;5.65;2.67;;;;;;;5.80;100.00;97934.28;4977692;28;20081;-76
2023/04/12 04:40:31;;;;;;;5.85;2.75;;;;;;;5.96;100.00;97951.16;4980549;28;20030;-78
2023/04/12 04:42:58;;;;;;;6.88;2.08;;;;;;;6.08;100.00;97963.88;5000053;28;20030;-81
2023/04/12 04:45:27;;;;;;;9.02;2.85;;;;;;;6.17;100.00;97975.28;4978992;28;20045;-81
2023/04/12 04:47:53;;;;;;;;;;;;;;;6.18;100.00;97979.63;5015179;28;20022;-82
2023/04/12 04:50:20;;;;;;;7.53;1.63;;;;;;;6.08;100.00;97957.69;4992225;28;19917;-79
2023/04/12 04:52:47;;;;;;;6.22;2.22;;;;;;;5.85;100.00;97907.69;4992250;28;20026;-79
2023/04/12 04:55:13;;;;;;;6.63;2.28;;;;;;;6.11;100.00;97958.09;4990580;28;20026;-79
2023/04/12 04:57:39;;;;;;;5.03;1.80;;;;;;;5.88;100.00;97918.03;4980935;28;20082;-80
2023/04/12 05:00:12;;;;;;;3.53;1.80;;;;;;;5.94;100.00;97919.13;4977544;28;20061;-79
2023/04/12 05:02:41;;;;;;;4.38;1.58;;;;;;;6.21;100.00;97947.03;4975604;28;20031;-72
2023/04/12 05:05:12;;;;;;;5.63;1.98;;;;;;;6.25;100.00;97948.28;4991922;28;20054;-76
2023/04/12 05:07:37;;;;;;;6.07;1.85;;;;;;;6.07;100.00;97918.41;4992943;28;20121;-77
2023/04/12 05:10:03;;;;;;;4.50;1.88;;;;;;;6.00;100.00;97909.47;4995405;28;20106;-74
2023/04/12 05:12:30;;;;;;;3.33;1.70;;;;;;;6.19;100.00;97937.50;4993043;28;20116;-77
2023/04/12 05:14:55;;;;;;;5.50;2.20;;;;;;;6.08;100.00;97926.28;4981676;28;20041;-76
2023/04/12 05:17:21;;;;;;;5.35;2.10;;;;;;;6.15;100.00;97937.03;4976290;28;20017;-76
2023/04/12 05:19:46;;;;;;;5.20;2.20;;;;;;;6.23;100.00;97933.38;4976410;28;20030;-75
2023/04/12 05:22:12;;;;;;;5.68;1.77;;;;;;;6.13;100.00;97922.97;4994901;28;20551;-74
2023/04/12 05:24:38;;;;;;;4.55;1.85;;;;;;;6.23;100.00;97936.88;4986602;28;20053;-77
2023/04/12 05:27:03;;;;;;;3.45;1.80;;;;;;;6.23;100.00;97923.47;4982840;28;20075;-74
2023/04/12 05:29:29;;;;;;;3.35;1.58;;;;;;;6.26;100.00;97938.34;4973700;28;20027;-79
2023/04/12 05:31:54;;;;;;;6.78;1.80;;;;;;;6.26;100.00;97915.03;4976483;28;20456;-75
2023/04/12 05:37:06;;;;;;;2.90;1.40;;;;;;;6.30;100.00;97913.59;4995138;28;20365;-80
2023/04/12 05:39:32;;;;;;;5.07;1.70;;;;;;;6.37;100.00;97908.28;4994222;28;20030;-76
2023/04/12 05:41:57;;;;;;;8.23;1.98;;;;;;;6.25;100.00;97894.56;4989344;28;20102;-76
2023/04/12 05:44:23;;;;;;;4.45;1.70;;;;;;;6.25;100.00;97901.78;4976124;28;20030;-76
2023/04/12 05:46:48;;;;;;;5.88;1.90;;;;;;;6.32;100.00;97897.28;4999156;28;20121;-75
2023/04/12 05:49:13;;;;;;;8.48;2.45;;;;;;;6.38;100.00;97892.97;4977198;28;20414;-84
2023/04/12 05:51:41;;;;;;;4.88;1.33;;;;;;;6.21;100.00;97861.06;4978680;28;20018;-85
2023/04/12 05:57:28;;;;;;;4.75;1.67;;;;;;;6.32;100.00;97859.69;4988184;28;20045;-82
2023/04/12 05:59:54;;;;;;;6.05;2.22;;;;;;;6.27;100.00;97849.53;4981380;28;20414;-81
2023/04/12 06:02:19;;;;;;;3.90;2.03;;;;;;;6.32;100.00;97855.13;4976955;28;20058;-83
2023/04/12 06:04:45;;;;;;;4.57;1.92;;;;;;;6.42;100.00;97856.59;4974020;28;20030;-81
2023/04/12 06:07:10;;;;;;;3.50;1.58;;;;;;;6.51;100.00;97863.47;4975139;28;20030;-79
2023/04/12 06:09:35;;;;;;;7.00;2.00;;;;;;;6.44;100.00;97835.75;4979318;28;20106;-80
2023/04/12 06:12:02;;;;;;;4.47;1.75;;;;;;;6.42;100.00;97813.63;4985441;28;20464;-80
2023/04/12 06:15:05;;;;;;;3.95;1.80;;;;;;;6.50;100.00;97838.47;4984058;28;20014;-84
2023/04/12 06:17:30;;;;;;;3.83;1.73;;;;;;;6.58;100.00;97845.53;4985336;28;20496;-81
2023/04/12 06:19:56;;;;;;;6.25;2.08;;;;;;;6.49;100.00;97815.31;4982579;28;20177;-81
2023/04/12 06:22:21;;;;;;;4.53;1.80;;;;;;;6.65;100.00;97830.22;4985758;28;20054;-80
2023/04/12 06:25:02;;;;;;;5.10;2.00;;;;;;;6.58;100.00;97800.66;4997448;28;20010;-81
2023/04/12 06:27:28;;;;;;;4.82;1.70;;;;;;;6.56;100.00;97794.66;4971298;28;20551;-76
2023/04/12 06:29:53;;;;;;;3.58;1.77;;;;;;;6.45;100.00;97770.25;4983831;28;20077;-76
2023/04/12 06:32:18;;;;;;;5.32;1.58;;;;;;;6.61;100.00;97787.88;4999194;28;20050;-76
2023/04/12 06:34:44;;;;;;;2.88;1.48;;;;;;;6.66;100.00;97791.59;4991475;28;20120;-74
2023/04/12 06:37:09;;;;;;;3.72;1.67;;;;;;;6.65;100.00;97791.78;4975895;28;20058;-75
2023/04/12 06:39:35;;;;;;;5.40;2.10;;;;;;;6.70;100.00;97783.94;4993538;28;20097;-75
2023/04/12 06:42:01;;;;;;;5.18;2.33;;;;;;;6.61;100.00;97755.63;4987963;28;20030;-74
2023/04/12 06:44:26;;;;;;;6.40;1.75;;;;;;;6.49;100.00;97728.50;4986177;28;20045;-74
2023/04/12 06:46:52;;;;;;;5.68;2.08;;;;;;;6.80;100.00;97766.38;4977889;28;20026;-77
2023/04/12 06:49:17;;;;;;;4.32;1.75;;;;;;;6.74;100.00;97751.06;4978481;28;20026;-77
2023/04/12 06:51:43;;;;;;;5.10;1.80;;;;;;;6.61;100.00;97710.75;4975992;28;20030;-77
2023/04/12 06:54:08;;;;;;;2.80;1.92;;;;;;;6.87;100.00;97755.66;4981368;28;20025;-78
2023/04/12 06:56:36;;;;;;;6.93;2.17;;;;;;;6.90;100.00;97749.03;4987122;28;20042;-77
2023/04/12 06:59:01;;;;;;;6.45;1.90;;;;;;;6.95;100.00;97750.06;4961618;28;20027;-77
2023/04/12 07:01:26;;;;;;;4.35;1.63;;;;;;;6.97;100.00;97747.19;4969538;28;20041;-80
2023/04/12 07:03:52;;;;;;;4.15;1.58;;;;;;;6.96;100.00;97730.19;4982098;28;20485;-78
2023/04/12 07:06:17;;;;;;;3.85;1.70;;;;;;;6.98;100.00;97732.69;4991435;28;20091;-82
2023/04/12 07:08:42;;;;;;;6.72;1.60;;;;;;;6.95;100.00;97706.22;4980069;28;20023;-76
2023/04/12 07:11:47;;;;;;;3.70;1.48;;;;;;;7.22;100.00;97742.00;4994425;28;20053;-88
2023/04/12 07:14:12;;;;;;;2.65;1.35;;;;;;;7.15;100.00;97716.94;4980213;28;20034;-77
2023/04/12 07:16:38;;;;;;;5.38;1.50;;;;;;;7.17;100.00;97718.41;4992512;28;20017;-86
2023/04/12 07:19:04;;;;;;;3.30;1.38;;;;;;;7.08;100.00;97700.00;4986369;28;20393;-83
2023/04/12 07:21:30;;;;;;;7.35;1.63;;;;;;;7.05;100.00;97678.88;4990122;28;20106;-80
2023/04/12 07:23:55;;;;;;;3.42;1.58;;;;;;;7.44;100.00;97710.28;4984510;28;20046;-84
2023/04/12 07:26:21;;;;;;;3.58;1.63;;;;;;;7.42;100.00;97693.53;4986918;28;20030;-85
2023/04/12 07:28:46;;;;;;;4.43;1.55;;;;;;;7.50;100.00;97677.16;4999993;28;20026;-84
2023/04/12 07:31:11;;;;;;;3.58;1.60;;;;;;;7.67;100.00;97694.50;4987393;28;20251;-82
2023/04/12 07:33:37;;;;;;;1.95;1.38;;;;;;;7.68;100.00;97680.00;4993039;28;20029;-80
2023/04/12 07:36:03;;;;;;;2.42;1.60;;;;;;;7.68;100.00;97677.31;4994478;28;20622;-81
2023/04/12 07:38:28;;;;;;;3.72;1.92;;;;;;;7.81;100.00;97672.94;4987106;28;20594;-76
2023/04/12 07:40:55;;;;;;;4.53;1.60;;;;;;;7.80;100.00;97679.34;4993871;28;20053;-74
2023/04/12 07:43:20;;;;;;;2.53;1.13;;;;;;;7.64;100.00;97649.16;4978822;28;20034;-75
2023/04/12 07:45:46;;;;;;;2.90;1.08;;;;;;;7.58;100.00;97624.97;4992190;28;20027;-77
2023/04/12 07:48:11;;;;;;;1.70;1.13;;;;;;;7.73;100.00;97643.53;4987730;28;20077;-75
2023/04/12 07:51:33;;;;;;;1.48;1.05;;;;;;;7.96;100.00;97645.69;4976025;28;20026;-86
2023/04/12 07:53:58;;;;;;;3.70;1.10;;;;;;;7.79;100.00;97616.59;4981795;28;20039;-83
2023/04/12 07:56:24;;;;;;;1.90;1.20;;;;;;;7.86;100.00;97612.00;4990442;28;20040;-81
2023/04/12 07:58:49;;;;;;;3.03;1.27;;;;;;;7.82;100.00;97610.78;4988133;28;20117;-82
2023/04/12 08:01:15;;;;;;;2.22;1.15;;;;;;;7.66;100.00;97587.03;4985114;28;20077;-79
2023/04/12 08:03:41;;;;;;;4.68;1.27;;;;;;;7.75;100.00;97593.00;4984246;28;20042;-79
2023/04/12 08:06:07;;;;;;;2.13;1.38;;;;;;;7.82;100.00;97596.47;4977497;28;20061;-80
2023/04/12 08:08:32;;;;;;;1.40;0.75;;;;;;;7.81;100.00;97576.00;4977438;28;20022;-76
2023/04/12 08:10:57;;;;;;;5.70;1.27;;;;;;;7.96;100.00;97589.97;4978779;28;20050;-75
2023/04/12 08:13:23;;;;;;;1.90;1.30;;;;;;;7.99;100.00;97583.31;5013590;28;20028;-82
2023/04/12 08:15:48;;;;;;;2.60;1.08;;;;;;;8.01;100.00;97584.75;5005840;28;20373;-81
2023/04/12 08:18:14;;;;;;;4.25;1.10;;;;;;;8.19;100.00;97589.41;4978657;28;20503;-79
2023/04/12 08:20:39;;;;;;;2.58;1.10;;;;;;;7.95;100.00;97549.81;4979524;28;20029;-79
2023/04/12 08:23:06;;;;;;;4.22;1.00;;;;;;;8.31;100.00;97582.28;4996275;28;20034;-83
2023/04/12 08:25:31;;;;;;;4.43;1.40;;;;;;;8.35;100.00;97577.28;5009106;28;20062;-84
2023/04/12 08:27:57;;;;;;;2.22;1.20;;;;;;;7.98;100.00;97528.63;4981889;28;20429;-84
2023/04/12 08:30:25;;;;;;;4.28;0.85;;;;;;;8.11;100.00;97558.16;4998306;28;21822;-82
2023/04/12 08:32:51;;;;;;;3.40;1.27;;;;;;;8.07;100.00;97551.59;4984274;28;20042;-81
2023/04/12 08:35:16;;;;;;;3.30;1.40;;;;;;;7.99;100.00;97534.84;4996067;28;20029;-76
2023/04/12 08:37:42;;;;;;;2.15;1.13;;;;;;;8.23;100.00;97547.53;4997403;28;20063;-84
2023/04/12 08:40:08;;;;;;;2.50;1.30;;;;;;;8.32;100.00;97564.25;4978421;28;20532;-76
2023/04/12 08:42:35;;;;;;;5.85;1.60;;;;;;;8.30;100.00;97553.66;4999815;28;20022;-76
2023/04/12 08:45:05;;;;;;;3.25;1.55;;;;;;;8.52;100.00;97591.06;4984652;28;20133;-76
2023/04/12 08:47:33;;;;;;;2.58;1.27;;;;;;;8.51;100.00;97592.94;4973882;28;20108;-76
2023/04/12 08:50:00;;;;;;;4.50;1.50;;;;;;;8.40;100.00;97565.88;4976057;28;20037;-76
2023/04/12 08:52:25;;;;;;;3.55;1.52;;;;;;;8.53;100.00;97569.28;4977254;28;20026;-76
2023/04/12 08:54:51;;;;;;;3.33;1.23;;;;;;;8.65;100.00;97577.47;4989918;28;20410;-76
2023/04/12 08:57:17;;;;;;;3.40;1.73;;;;;;;8.66;100.00;97570.22;4993564;28;20095;-76
2023/04/12 08:59:44;;;;;;;5.00;1.48;;;;;;;8.75;100.00;97566.16;4976869;28;20160;-76
2023/04/12 09:02:13;;;;;;;2.70;1.30;;;;;;;8.63;100.00;97528.34;4994887;28;20030;-76
2023/04/12 09:04:48;;;;;;;2.55;1.00;;;;;;;8.77;100.00;97537.13;4982864;28;20125;-76
2023/04/12 09:07:14;;;;;;;3.38;1.15;;;;;;;8.88;100.00;97533.72;4983869;28;20623;-76
2023/04/12 09:09:49;;;;;;;2.72;1.70;;;;;;;9.04;100.00;97545.78;5001300;28;20030;-76
2023/04/12 09:12:15;;;;;;;3.08;1.20;;;;;;;9.23;100.00;97533.09;4994575;28;20085;-77
2023/04/12 09:14:44;;;;;;;3.13;1.55;;;;;;;9.41;100.00;97513.38;4971368;28;20113;-76
2023/04/12 09:17:26;;;;;;;2.17;1.27;;;;;;;9.42;100.00;97499.63;4998468;28;20088;-76
2023/04/12 09:19:53;;;;;;;3.53;1.13;;;;;;;9.40;100.00;97525.19;4994412;28;20069;-76
2023/04/12 09:22:32;;;;;;;2.50;1.27;;;;;;;9.44;100.00;97502.91;4974050;28;20022;-77
2023/04/12 09:24:57;;;;;;;3.30;1.30;;;;;;;9.14;100.00;97477.78;4968191;28;20077;-77
2023/04/12 09:27:24;;;;;;;3.00;1.35;;;;;;;9.16;100.00;97497.25;4987924;28;20026;-78
2023/04/12 09:29:50;;;;;;;5.07;1.33;;;;;;;9.19;100.00;97511.13;4976619;28;20030;-77
2023/04/12 09:32:24;;;;;;;3.20;1.20;;;;;;;9.12;100.00;97490.69;4987599;28;20041;-84
2023/04/12 09:34:57;;;;;;;1.88;0.98;;;;;;;9.28;100.00;97500.84;5001540;28;20534;-85
2023/04/12 09:37:23;;;;;;;3.67;1.17;;;;;;;9.19;100.00;97469.81;5000086;28;20034;-78
2023/04/12 09:40:03;;;;;;;2.72;1.42;;;;;;;9.34;100.00;97475.66;4972990;28;20530;-76
2023/04/12 09:42:28;;;;;;;3.90;1.05;;;;;;;9.43;100.00;97492.34;4999479;28;20036;-81
2023/04/12 09:44:56;;;;;;;2.70;1.20;;;;;;;9.51;100.00;97505.56;4986975;28;20050;-79
2023/04/12 09:47:23;;;;;;;3.47;1.23;;;;;;;9.37;100.00;97491.38;4985961;28;20098;-83
2023/04/12 09:49:49;;;;;;;3.05;1.40;;;;;;;9.20;100.00;97480.41;4985599;28;20034;-81
2023/04/12 09:52:14;;;;;;;2.47;1.30;;;;;;;9.31;100.00;97505.78;4987548;28;20026;-83
2023/04/12 09:54:44;;;;;;;5.85;1.50;;;;;;;9.38;100.00;97509.25;4979086;28;20023;-78
2023/04/12 09:57:11;;;;;;;4.50;1.73;;;;;;;9.47;100.00;97503.53;4980620;28;20032;-80
2023/04/12 09:59:38;;;;;;;5.32;1.67;;;;;;;9.66;100.00;97505.13;4987982;28;20045;-81
2023/04/12 10:02:15;;;;;;;1.92;1.10;;;;;;;9.79;100.00;97491.41;5004040;28;20094;-90
2023/04/12 10:04:41;;;;;;;2.72;1.38;;;;;;;10.20;100.00;97484.34;4984196;28;20061;-90
2023/04/12 10:07:07;;;;;;;6.22;1.85;;;;;;;10.46;100.00;97475.00;4971544;28;20034;-90
2023/04/12 10:09:33;;;;;;;5.50;1.33;;;;;;;10.64;100.00;97459.72;4976758;28;20026;-89
2023/04/12 10:12:00;;;;;;;4.70;1.60;;;;;;;10.55;100.00;97434.88;4978896;28;20452;-89
2023/04/12 10:14:27;;;;;;;4.43;1.20;;;;;;;10.79;100.00;97470.03;4979077;28;20045;-88
2023/04/12 10:16:56;;;;;;;4.40;1.40;;;;;;;10.90;100.00;97477.31;4978584;28;20037;-87
2023/04/12 10:19:24;;;;;;;2.50;1.67;;;;;;;10.91;100.00;97450.00;4978026;28;20033;-89
2023/04/12 10:21:49;;;;;;;3.05;1.45;;;;;;;10.97;100.00;97454.44;4978935;28;20266;-89
2023/04/12 10:24:16;;;;;;;8.25;1.58;;;;;;;10.96;100.00;97433.88;4978903;28;20026;-88
2023/04/12 10:26:45;;;;;;;5.57;1.52;;;;;;;11.17;100.00;97458.66;4978937;28;20030;-87
2023/04/12 10:29:28;;;;;;;4.53;1.63;;;;;;;11.06;100.00;97414.31;4994957;28;20018;-87
2023/04/12 10:32:17;;;;;;;2.80;1.40;;;;;;;11.38;100.00;97430.09;4999454;28;20035;-89
2023/04/12 10:34:42;;;;;;;7.43;2.42;;;;;;;11.48;100.00;97430.28;4997108;28;20047;-91
2023/04/12 10:37:08;;;;;;;3.28;1.60;;;;;;;11.63;100.00;97410.75;5010287;28;20030;-88
2023/04/12 10:39:46;;;;;;;2.80;1.58;;;;;;;11.74;100.00;97436.97;5097284;28;20385;-57
2023/04/12 10:42:28;;;;;;;5.63;1.60;;;;;;;11.57;100.00;97426.09;5066001;28;20025;-55
2023/04/12 10:44:56;;;;;;;5.25;2.03;;;;;;;11.67;100.00;97438.19;5043237;28;20059;-55
2023/04/12 10:50:42;;;;;;;5.43;1.75;;;;;;;11.32;100.00;97436.47;5064517;28;20075;-56
2023/04/12 10:53:12;;;;;;;5.28;1.95;;;;;;;11.24;100.00;97447.66;5052454;28;20013;-56
2023/04/12 10:55:46;;;;;;;;;;;;;;;11.29;100.00;97436.94;5059003;28;20165;-56
2023/04/12 10:58:46;;;;;;;3.72;1.55;;;;;;;11.56;100.00;97427.16;5132437;22;19908;-88
2023/04/12 11:01:12;;;;;;;3.78;1.65;;;;;;;11.58;100.00;97416.06;5071893;28;20024;-88
2023/04/12 11:04:03;;;;;;;4.13;1.30;;;;;;;11.85;100.00;97417.09;5074250;28;20024;-87
2023/04/12 11:06:48;;;;;;;2.40;1.80;;;;;;;12.10;100.00;97412.38;5072387;28;20558;-88
2023/04/12 11:09:32;;;;;;;8.10;1.58;;;;;;;12.24;100.00;97390.09;5069212;28;20012;-87
2023/04/12 11:12:19;;;;;;;2.60;1.10;;;;;;;12.27;100.00;97380.66;5075813;28;20021;-85
2023/04/12 11:14:50;;;;;;;3.20;1.10;;;;;;;12.27;100.00;97373.31;5074931;28;20390;-87
2023/04/12 11:17:15;;;;;;;2.53;1.20;;;;;;;12.69;100.00;97366.56;5072738;28;20588;-86
2023/04/12 11:19:43;;;;;;;4.13;1.17;;;;;;;13.22;100.00;97370.44;5071517;28;20032;-88
2023/04/12 11:22:11;;;;;;;3.55;1.00;;;;;;;13.19;100.00;97367.41;5071605;28;20055;-87
2023/04/12 11:24:47;;;;;;;2.17;0.90;;;;;;;13.24;100.00;97352.00;5068751;28;20105;-86
2023/04/12 11:27:15;;;;;;;3.70;0.80;;;;;;;13.24;100.00;97352.00;5074313;28;20059;-85
2023/04/12 11:29:42;;;;;;;4.93;0.98;;;;;;;13.33;100.00;97353.19;5074050;28;20394;-85
2023/04/12 11:32:11;;;;;;;7.28;1.23;;;;;;;13.29;100.00;97343.09;5071213;28;20025;-85
2023/04/12 11:34:37;;;;;;;4.30;1.10;;;;;;;13.44;100.00;97343.25;5072421;28;20363;-84
2023/04/12 11:37:06;;;;;;;2.42;1.17;;;;;;;13.17;100.00;97307.91;5073277;28;20032;-80
2023/04/12 11:39:32;;;;;;;2.60;0.90;;;;;;;13.18;100.00;97350.31;5077240;28;20039;-84
2023/04/12 11:41:58;;;;;;;2.92;0.70;;;;;;;13.12;100.00;97322.25;5085836;28;20021;-80
2023/04/12 11:44:24;;;;;;;2.88;0.80;;;;;;;13.59;100.00;97340.66;5077082;28;20523;-81